Etusivu
METAR-TAF:

METAR-TAF

Lentoasemat :

Worthington Municipal Airport

Worthington, Minnesota, Yhdysvallat

Leveyspiiri: 43-39N, Pituuspiiri: 095-35W, korkeus merenpinnasta: 480 m

Tämänhetkinen sää

Tämä raportti tehtiin 49 minuuttia sitten, kello 08.56 UTC
Tuuli 17 kn etelästä/lounaasta
Lämpötila -4°C
Kosteus 68%
Ilmanpaine 1009 hPa
Näkyvyys: 16.1 km
Pilvistä 9000 ft:n korkeudessa

METAR: KOTG 130856Z AUTO 21017KT 10SM OVC090 M04/M09 A2981 RMK AO2 SLP121 T10441089 56017 FZRANO

Aika: 03:45 (09:45 UTC)


TAF: puuttuu

Säähavainnot ja -ennusteet yli 4000 lentoasemalta (METAR- ja TAF-raportit).

Käytössä olevat sääasemat on merkitty karttaan keltaisilla ja punaisilla pisteillä.

Aseta hiiri pisteen päälle nähdäksesi sääaseman nimen.

Klikkaa sitten nähdäksesi säähavainnot ja -ennusteet.

Kartan vaihtaminen: klikkaa mustalla rastilla varustettuja vihreitä pisteitä, niin voit zoomata sisään; viivalla varustettua vihreää pistettä, niin voit zoomata ulos tai vihreitä nuolia, niin pääset viereisille kartoille.


METAR-TAF: